createdAt,value
2023-01-10T00:01:31.075Z,7.13
2023-01-10T00:03:58.935Z,8.90
2023-01-10T00:06:27.964Z,8.80
2023-01-10T00:08:57.260Z,6.77
2023-01-10T00:11:43.065Z,6.50
2023-01-10T00:14:12.189Z,7.20
2023-01-10T00:16:40.592Z,9.13
2023-01-10T00:19:09.629Z,5.47
2023-01-10T00:21:39.615Z,7.73
2023-01-10T00:24:17.892Z,4.93
2023-01-10T00:26:47.618Z,7.27
2023-01-10T00:29:16.016Z,6.63
2023-01-10T00:31:43.695Z,9.60
2023-01-10T00:34:11.419Z,8.93
2023-01-10T00:36:40.557Z,5.50
2023-01-10T00:39:12.467Z,7.00
2023-01-10T00:41:58.378Z,5.13
2023-01-10T00:44:27.072Z,3.90
2023-01-10T00:46:55.269Z,6.20
2023-01-10T00:49:23.017Z,6.37
2023-01-10T00:51:52.135Z,4.90
2023-01-10T00:54:19.939Z,9.43
2023-01-10T00:56:47.639Z,6.13
2023-01-10T00:59:15.412Z,5.57
2023-01-10T01:01:43.337Z,5.97
2023-01-10T01:04:11.171Z,9.27
2023-01-10T01:06:38.889Z,9.40
2023-01-10T01:09:07.957Z,8.73
2023-01-10T01:11:35.720Z,5.73
2023-01-10T01:14:03.452Z,9.47
2023-01-10T01:16:31.165Z,10.13
2023-01-10T01:18:59.576Z,7.10
2023-01-10T01:21:28.259Z,6.67
2023-01-10T01:23:57.544Z,5.03
2023-01-10T01:26:27.652Z,4.73
2023-01-10T01:28:55.416Z,6.70
2023-01-10T01:31:23.244Z,9.03
2023-01-10T01:33:51.597Z,5.90
2023-01-10T01:36:20.000Z,4.90
2023-01-10T01:38:47.866Z,7.20
2023-01-10T01:41:32.491Z,9.07
2023-01-10T01:44:05.314Z,8.03
2023-01-10T01:46:35.150Z,10.60
2023-01-10T01:49:06.008Z,7.83
2023-01-10T01:51:35.530Z,7.17
2023-01-10T01:54:05.722Z,9.93
2023-01-10T01:56:37.909Z,8.50
2023-01-10T01:59:12.653Z,10.20
2023-01-10T02:01:42.845Z,11.20
2023-01-10T02:04:16.729Z,11.17
2023-01-10T02:06:47.074Z,7.77
2023-01-10T02:09:22.083Z,9.50
2023-01-10T02:11:50.013Z,11.33
2023-01-10T02:14:21.494Z,8.30
2023-01-10T02:16:49.284Z,7.37
2023-01-10T02:19:26.202Z,8.17
2023-01-10T02:22:44.702Z,7.80
2023-01-10T02:25:53.450Z,8.43
2023-01-10T02:28:55.105Z,8.80
2023-01-10T02:31:44.735Z,8.77
2023-01-10T02:34:21.103Z,9.50
2023-01-10T02:36:58.595Z,9.03
2023-01-10T02:39:35.417Z,6.37
2023-01-10T02:42:08.066Z,9.30
2023-01-10T02:44:41.758Z,6.67
2023-01-10T02:47:10.137Z,13.37
2023-01-10T02:49:45.053Z,7.37
2023-01-10T02:52:15.967Z,7.03
2023-01-10T02:54:43.836Z,10.77
2023-01-10T02:57:26.726Z,13.47
2023-01-10T03:00:09.880Z,8.90
2023-01-10T03:02:51.161Z,8.60
2023-01-10T03:05:32.650Z,9.03
2023-01-10T03:08:19.541Z,8.13
2023-01-10T03:10:53.702Z,7.37
2023-01-10T03:13:27.906Z,9.00
2023-01-10T03:15:58.286Z,9.50
2023-01-10T03:18:32.878Z,9.10
2023-01-10T03:21:05.882Z,8.87
2023-01-10T03:23:35.286Z,8.80
2023-01-10T03:26:06.108Z,9.97
2023-01-10T03:28:39.523Z,8.67
2023-01-10T03:31:12.394Z,7.30
2023-01-10T03:33:40.867Z,8.10
2023-01-10T03:36:23.188Z,9.97
2023-01-10T03:38:55.282Z,9.97
2023-01-10T03:41:32.013Z,7.13
2023-01-10T03:44:25.575Z,8.77
2023-01-10T03:46:58.289Z,10.53
2023-01-10T03:49:28.491Z,10.10
2023-01-10T03:51:59.556Z,8.73
2023-01-10T03:54:27.931Z,10.90
2023-01-10T03:56:55.637Z,8.63
2023-01-10T03:59:25.916Z,6.90
2023-01-10T04:01:54.237Z,8.20
2023-01-10T04:04:22.268Z,10.27
2023-01-10T04:06:50.030Z,6.20
2023-01-10T04:09:19.064Z,7.90
2023-01-10T04:11:46.779Z,9.27
2023-01-10T04:14:14.426Z,10.33
2023-01-10T04:16:42.112Z,10.83
2023-01-10T04:19:09.759Z,10.47
2023-01-10T04:21:37.600Z,9.90
2023-01-10T04:24:05.485Z,8.60
2023-01-10T04:26:34.668Z,6.97
2023-01-10T04:29:02.480Z,8.43
2023-01-10T04:31:30.317Z,7.50
2023-01-10T04:33:58.088Z,9.97
2023-01-10T04:36:25.807Z,12.77
2023-01-10T04:38:53.584Z,8.73
2023-01-10T04:41:21.346Z,12.27
2023-01-10T04:43:50.682Z,7.63
2023-01-10T04:46:18.687Z,8.50
2023-01-10T04:48:46.414Z,11.43
2023-01-10T04:51:14.185Z,8.87
2023-01-10T04:53:42.341Z,10.93
2023-01-10T04:56:17.911Z,10.67
2023-01-10T04:58:45.821Z,10.07
2023-01-10T05:01:17.356Z,10.30
2023-01-10T05:03:45.349Z,8.30
2023-01-10T05:06:13.100Z,8.33
2023-01-10T05:08:40.937Z,8.67
2023-01-10T05:11:08.702Z,8.90
2023-01-10T05:13:36.420Z,8.70
2023-01-10T05:16:04.324Z,12.60
2023-01-10T05:18:33.937Z,10.63
2023-01-10T05:21:02.895Z,12.27
2023-01-10T05:23:30.864Z,8.73
2023-01-10T05:25:58.659Z,11.20
2023-01-10T05:28:26.405Z,10.80
2023-01-10T05:30:54.174Z,11.60
2023-01-10T05:33:21.948Z,9.67
2023-01-10T05:35:51.138Z,10.27
2023-01-10T05:38:18.938Z,9.63
2023-01-10T05:40:46.728Z,13.57
2023-01-10T05:43:14.486Z,14.37
2023-01-10T05:45:43.646Z,13.13
2023-01-10T05:48:11.414Z,12.70
2023-01-10T05:50:39.091Z,14.00
2023-01-10T05:53:08.170Z,12.63
2023-01-10T05:55:35.990Z,13.93
2023-01-10T05:58:03.768Z,17.03
2023-01-10T06:00:31.464Z,9.60
2023-01-10T06:02:59.281Z,11.80
2023-01-10T06:05:27.008Z,17.03
2023-01-10T06:07:54.774Z,11.13
2023-01-10T06:10:24.892Z,10.40
2023-01-10T06:12:54.090Z,17.53
2023-01-10T06:15:21.834Z,13.70
2023-01-10T06:17:49.655Z,10.83
2023-01-10T06:20:18.437Z,11.90
2023-01-10T06:22:46.296Z,9.97
2023-01-10T06:25:15.731Z,8.80
2023-01-10T06:27:45.266Z,10.97
2023-01-10T06:30:14.573Z,13.47
2023-01-10T06:32:42.544Z,12.57
2023-01-10T06:35:11.292Z,11.37
2023-01-10T06:37:39.537Z,14.03
2023-01-10T06:40:08.513Z,14.20
2023-01-10T06:42:36.299Z,10.17
2023-01-10T06:45:06.239Z,12.13
2023-01-10T06:47:34.037Z,14.17
2023-01-10T06:50:01.858Z,12.40
2023-01-10T06:52:30.063Z,9.20
2023-01-10T06:54:57.921Z,15.70
2023-01-10T06:57:25.708Z,14.27
2023-01-10T06:59:53.415Z,10.23
2023-01-10T07:02:22.654Z,15.93
2023-01-10T07:04:50.448Z,12.30
2023-01-10T07:07:18.207Z,14.17
2023-01-10T07:09:46.334Z,13.53
2023-01-10T07:12:14.195Z,12.07
2023-01-10T07:14:41.979Z,17.37
2023-01-10T07:17:09.694Z,14.97
2023-01-10T07:19:38.796Z,12.87
2023-01-10T07:22:06.491Z,14.77
2023-01-10T07:24:34.367Z,12.87
2023-01-10T07:27:02.232Z,12.07
2023-01-10T07:29:29.974Z,11.37
2023-01-10T07:31:57.664Z,14.80
2023-01-10T07:34:25.435Z,14.57
2023-01-10T07:36:54.520Z,16.43
2023-01-10T07:39:22.238Z,12.13
2023-01-10T07:41:50.484Z,10.93
2023-01-10T07:44:18.213Z,13.20
2023-01-10T07:46:45.947Z,15.33
2023-01-10T07:49:14.199Z,16.47
2023-01-10T07:51:41.989Z,13.83
2023-01-10T07:54:12.947Z,15.30
2023-01-10T07:56:41.891Z,14.33
2023-01-10T07:59:09.737Z,15.10
2023-01-10T08:01:37.533Z,19.33
2023-01-10T08:04:05.389Z,13.00
2023-01-10T08:06:33.213Z,16.03
2023-01-10T08:09:00.946Z,12.77
2023-01-10T08:11:30.060Z,23.53
2023-01-10T08:13:57.802Z,15.97
2023-01-10T08:16:25.662Z,17.53
2023-01-10T08:18:53.413Z,14.67
2023-01-10T08:21:21.188Z,18.70
2023-01-10T08:23:49.011Z,17.77
2023-01-10T08:26:16.731Z,18.13
2023-01-10T08:28:45.778Z,16.57
2023-01-10T08:31:13.604Z,17.40
2023-01-10T08:33:41.843Z,13.73
2023-01-10T08:36:16.984Z,11.90
2023-01-10T08:38:44.785Z,18.80
2023-01-10T08:41:13.630Z,16.40
2023-01-10T08:43:41.487Z,12.70
2023-01-10T08:46:10.664Z,14.27
2023-01-10T08:48:38.528Z,11.10
2023-01-10T08:51:08.874Z,16.27
2023-01-10T08:53:36.993Z,18.00
2023-01-10T08:56:05.712Z,16.83
2023-01-10T08:58:33.853Z,15.23
2023-01-10T09:01:05.059Z,15.87
2023-01-10T09:03:34.246Z,20.50
2023-01-10T09:06:02.978Z,14.73
2023-01-10T09:08:30.725Z,18.60
2023-01-10T09:10:59.620Z,16.27
2023-01-10T09:13:27.397Z,20.43
2023-01-10T09:15:55.113Z,19.07
2023-01-10T09:18:22.886Z,22.47
2023-01-10T09:20:52.563Z,16.13
2023-01-10T09:23:25.024Z,16.20
2023-01-10T09:25:54.823Z,14.40
2023-01-10T09:28:24.223Z,16.00
2023-01-10T09:30:52.480Z,20.03
2023-01-10T09:33:20.922Z,14.13
2023-01-10T09:35:48.837Z,18.33
2023-01-10T09:38:22.178Z,24.33
2023-01-10T09:41:15.532Z,15.07
2023-01-10T09:43:52.557Z,15.80
2023-01-10T09:46:27.639Z,14.77
2023-01-10T09:49:01.099Z,13.30
2023-01-10T09:51:36.313Z,14.70
2023-01-10T09:54:12.770Z,15.57
2023-01-10T09:56:41.685Z,20.80
2023-01-10T09:59:16.126Z,15.33
2023-01-10T10:01:44.115Z,14.50
2023-01-10T10:04:22.502Z,20.50
2023-01-10T10:06:51.167Z,14.10
2023-01-10T10:09:24.649Z,14.67
2023-01-10T10:12:09.320Z,19.63
2023-01-10T10:14:53.819Z,17.97
2023-01-10T10:17:42.232Z,11.57
2023-01-10T10:20:32.841Z,16.87
2023-01-10T10:23:21.617Z,16.50
2023-01-10T10:26:02.527Z,16.53
2023-01-10T10:29:12.476Z,9.43
2023-01-10T10:31:52.087Z,13.40
2023-01-10T10:34:25.831Z,16.07
2023-01-10T10:36:57.381Z,16.83
2023-01-10T10:39:33.165Z,17.10
2023-01-10T10:42:04.186Z,15.80
2023-01-10T10:44:38.152Z,11.80
2023-01-10T10:47:14.701Z,15.10
2023-01-10T10:49:46.149Z,17.57
2023-01-10T10:52:22.719Z,13.63
2023-01-10T10:54:50.656Z,17.30
2023-01-10T10:57:22.935Z,15.70
2023-01-10T10:59:50.762Z,20.33
2023-01-10T11:02:25.395Z,13.43
2023-01-10T11:04:56.305Z,14.07
2023-01-10T11:07:25.731Z,18.63
2023-01-10T11:09:59.344Z,17.10
2023-01-10T11:12:35.274Z,12.93
2023-01-10T11:15:04.212Z,16.47
2023-01-10T11:17:33.757Z,11.77
2023-01-10T11:20:03.026Z,13.80
2023-01-10T11:22:37.823Z,18.20
2023-01-10T11:25:06.668Z,15.57
2023-01-10T11:27:47.064Z,14.30
2023-01-10T11:30:22.219Z,12.50
2023-01-10T11:32:53.877Z,10.70
2023-01-10T11:35:26.261Z,16.57
2023-01-10T11:38:01.544Z,19.40
2023-01-10T11:40:31.226Z,11.53
2023-01-10T11:43:02.253Z,14.27
2023-01-10T11:45:36.081Z,12.27
2023-01-10T11:48:09.732Z,16.10
2023-01-10T11:50:40.496Z,15.07
2023-01-10T11:53:27.895Z,14.70
2023-01-10T11:55:55.772Z,16.63
2023-01-10T11:58:24.968Z,13.83
2023-01-10T12:00:52.823Z,15.30
2023-01-10T12:03:28.097Z,13.87
2023-01-10T12:05:58.022Z,13.37
2023-01-10T12:08:28.904Z,10.83
2023-01-10T12:11:02.810Z,12.70
2023-01-10T12:13:45.436Z,11.63
2023-01-10T12:16:18.073Z,11.73
2023-01-10T12:18:46.406Z,8.57
2023-01-10T12:21:17.336Z,10.43
2023-01-10T12:23:48.765Z,11.93
2023-01-10T12:26:17.417Z,15.33
2023-01-10T12:28:52.789Z,9.57
2023-01-10T12:31:23.688Z,11.13
2023-01-10T12:33:57.005Z,15.70
2023-01-10T12:36:36.141Z,9.17
2023-01-10T12:39:14.235Z,13.43
2023-01-10T12:42:07.773Z,9.87
2023-01-10T12:44:41.468Z,11.53
2023-01-10T12:47:19.412Z,12.13
2023-01-10T12:49:52.121Z,10.93
2023-01-10T12:52:29.623Z,11.50
2023-01-10T12:54:57.476Z,7.87
2023-01-10T12:57:31.549Z,9.50
2023-01-10T13:00:06.849Z,14.00
2023-01-10T13:02:41.339Z,9.27
2023-01-10T13:05:17.592Z,14.30
2023-01-10T13:07:47.019Z,11.07
2023-01-10T13:10:18.959Z,12.17
2023-01-10T13:12:51.680Z,16.17
2023-01-10T13:15:23.869Z,11.13
2023-01-10T13:17:55.718Z,10.27
2023-01-10T13:20:45.820Z,12.03
2023-01-10T13:23:23.749Z,13.93
2023-01-10T13:25:57.188Z,8.93
2023-01-10T13:28:27.002Z,11.23
2023-01-10T13:30:58.105Z,9.37
2023-01-10T13:33:28.027Z,11.03
2023-01-10T13:35:59.413Z,12.23
2023-01-10T13:38:35.633Z,10.03
2023-01-10T13:41:06.160Z,8.53
2023-01-10T13:44:01.997Z,11.33
2023-01-10T13:46:46.747Z,9.00
2023-01-10T13:49:40.689Z,10.27
2023-01-10T13:52:38.423Z,9.77
2023-01-10T13:55:24.621Z,12.37
2023-01-10T13:57:57.885Z,12.13
2023-01-10T14:00:59.467Z,11.43
2023-01-10T14:03:44.569Z,10.47
2023-01-10T14:06:17.041Z,7.83
2023-01-10T14:08:51.193Z,11.93
2023-01-10T14:11:19.746Z,7.47
2023-01-10T14:13:51.245Z,5.57
2023-01-10T14:16:35.203Z,11.50
2023-01-10T14:19:06.907Z,9.83
2023-01-10T14:21:42.357Z,9.23
2023-01-10T14:24:25.437Z,11.67
2023-01-10T14:26:57.303Z,6.33
2023-01-10T14:29:30.685Z,10.13
2023-01-10T14:32:00.503Z,10.67
2023-01-10T14:34:35.558Z,8.43
2023-01-10T14:37:09.858Z,9.97
2023-01-10T14:39:38.383Z,10.27
2023-01-10T14:42:09.329Z,13.03
2023-01-10T14:44:44.069Z,9.30
2023-01-10T14:47:28.773Z,10.03
2023-01-10T14:49:59.657Z,12.50
2023-01-10T14:52:28.059Z,9.10
2023-01-10T14:55:02.779Z,7.40
2023-01-10T14:57:30.656Z,12.73
2023-01-10T15:00:17.521Z,12.57
2023-01-10T15:02:46.662Z,8.00
2023-01-10T15:05:20.187Z,8.23
2023-01-10T15:07:48.120Z,11.67
2023-01-10T15:10:24.215Z,10.50
2023-01-10T15:12:53.698Z,6.63
2023-01-10T15:15:28.190Z,11.30
2023-01-10T15:17:56.138Z,8.87
2023-01-10T15:20:25.541Z,10.20
2023-01-10T15:22:57.885Z,9.00
2023-01-10T15:25:29.796Z,9.30
2023-01-10T15:27:59.662Z,13.37
2023-01-10T15:30:30.542Z,8.50
2023-01-10T15:33:02.863Z,7.00
2023-01-10T15:35:36.725Z,12.77
2023-01-10T15:38:08.095Z,8.07
2023-01-10T15:40:38.585Z,11.30
2023-01-10T15:43:25.954Z,13.70
2023-01-10T15:45:56.608Z,10.97
2023-01-10T15:48:30.260Z,10.47
2023-01-10T15:51:03.637Z,9.30
2023-01-10T15:54:03.115Z,9.10
2023-01-10T15:56:35.818Z,11.53
2023-01-10T15:59:04.893Z,10.27
2023-01-10T16:01:35.359Z,14.93
2023-01-10T16:04:05.573Z,12.63
2023-01-10T16:06:37.134Z,11.70
2023-01-10T16:09:08.133Z,8.70
2023-01-10T16:11:58.780Z,13.13
2023-01-10T16:14:26.937Z,14.40
2023-01-10T16:16:54.787Z,15.00
2023-01-10T16:19:22.702Z,13.77
2023-01-10T16:21:58.178Z,10.30
2023-01-10T16:24:29.078Z,13.10
2023-01-10T16:26:58.195Z,15.63
2023-01-10T16:29:27.402Z,13.37
2023-01-10T16:31:55.413Z,14.20
2023-01-10T16:34:24.373Z,6.50
2023-01-10T16:36:53.711Z,10.40
2023-01-10T16:39:25.958Z,15.27
2023-01-10T16:42:11.292Z,12.53
2023-01-10T16:44:39.515Z,15.17
2023-01-10T16:47:07.404Z,8.83
2023-01-10T16:49:35.181Z,14.23
2023-01-10T16:52:04.535Z,13.73
2023-01-10T16:54:35.600Z,11.53
2023-01-10T16:57:03.391Z,14.67
2023-01-10T16:59:31.495Z,12.20
2023-01-10T17:01:59.523Z,11.57
2023-01-10T17:04:30.582Z,10.80
2023-01-10T17:06:59.196Z,15.40
2023-01-10T17:09:31.803Z,16.00
2023-01-10T17:12:04.739Z,10.20
2023-01-10T17:14:34.895Z,12.83
2023-01-10T17:17:03.091Z,9.07
2023-01-10T17:19:30.818Z,10.57
2023-01-10T17:21:58.595Z,11.70
2023-01-10T17:24:29.638Z,15.77
2023-01-10T17:26:57.492Z,9.27
2023-01-10T17:29:26.360Z,12.00
2023-01-10T17:31:54.162Z,11.73
2023-01-10T17:34:22.003Z,11.70
2023-01-10T17:36:49.732Z,15.57
2023-01-10T17:39:17.545Z,11.27
2023-01-10T17:41:46.632Z,11.00
2023-01-10T17:44:14.440Z,11.70
2023-01-10T17:46:42.189Z,8.83
2023-01-10T17:49:11.869Z,10.60
2023-01-10T17:51:41.021Z,7.20
2023-01-10T17:54:08.763Z,17.13
2023-01-10T17:56:36.559Z,12.00
2023-01-10T17:59:05.672Z,14.00
2023-01-10T18:01:33.702Z,12.60
2023-01-10T18:04:01.430Z,15.27
2023-01-10T18:06:29.169Z,12.20
2023-01-10T18:08:56.943Z,7.77
2023-01-10T18:11:25.292Z,8.90
2023-01-10T18:13:53.097Z,11.23
2023-01-10T18:16:27.198Z,8.87
2023-01-10T18:18:55.130Z,7.23
2023-01-10T18:21:22.871Z,10.03
2023-01-10T18:24:01.818Z,8.53
2023-01-10T18:26:29.589Z,7.10
2023-01-10T18:28:57.349Z,9.10
2023-01-10T18:31:26.553Z,8.13
2023-01-10T18:33:54.399Z,6.90
2023-01-10T18:36:24.215Z,8.00
2023-01-10T18:38:52.582Z,6.80
2023-01-10T18:41:22.172Z,5.30
2023-01-10T18:43:49.945Z,7.50
2023-01-10T18:46:19.745Z,6.37
2023-01-10T18:48:52.286Z,7.00
2023-01-10T18:51:20.126Z,10.10
2023-01-10T18:53:48.983Z,10.27
2023-01-10T18:56:17.184Z,8.53
2023-01-10T18:58:44.980Z,7.63
2023-01-10T19:01:14.216Z,6.63
2023-01-10T19:03:42.306Z,9.93
2023-01-10T19:06:14.595Z,7.27
2023-01-10T19:08:43.194Z,9.43
2023-01-10T19:11:14.316Z,10.83
2023-01-10T19:13:43.202Z,5.83
2023-01-10T19:16:13.270Z,7.37
2023-01-10T19:18:41.755Z,9.37
2023-01-10T19:21:15.169Z,15.40
2023-01-10T19:23:43.356Z,5.73
2023-01-10T19:26:11.230Z,3.73
2023-01-10T19:28:39.008Z,7.60
2023-01-10T19:31:07.266Z,5.40
2023-01-10T19:33:37.384Z,6.33
2023-01-10T19:36:06.712Z,7.60
2023-01-10T19:38:36.045Z,5.47
2023-01-10T19:41:04.666Z,7.40
2023-01-10T19:43:33.796Z,8.37
2023-01-10T19:46:01.954Z,8.67
2023-01-10T19:48:29.762Z,7.43
2023-01-10T19:50:57.660Z,7.43
2023-01-10T19:53:27.130Z,11.43
2023-01-10T19:56:03.033Z,7.77
2023-01-10T19:58:31.848Z,6.23
2023-01-10T20:01:07.660Z,3.97
2023-01-10T20:03:35.605Z,5.17
2023-01-10T20:06:04.220Z,3.13
2023-01-10T20:08:32.523Z,4.40
2023-01-10T20:11:05.513Z,5.07
2023-01-10T20:13:33.767Z,5.53
2023-01-10T20:16:01.515Z,6.53
2023-01-10T20:18:29.296Z,9.83
2023-01-10T20:20:57.349Z,4.33
2023-01-10T20:23:25.375Z,4.37
2023-01-10T20:25:57.873Z,5.83
2023-01-10T20:28:27.121Z,5.43
2023-01-10T20:30:54.930Z,4.73
2023-01-10T20:33:23.014Z,3.70
2023-01-10T20:35:58.386Z,2.57
2023-01-10T20:38:26.717Z,2.60
2023-01-10T20:40:57.691Z,3.77
2023-01-10T20:43:27.638Z,2.27
2023-01-10T20:45:55.870Z,2.13
2023-01-10T20:48:24.260Z,2.07
2023-01-10T20:50:52.018Z,2.93
2023-01-10T20:53:19.844Z,1.10
2023-01-10T20:55:59.102Z,2.13
2023-01-10T20:58:28.946Z,1.93
2023-01-10T21:00:56.826Z,2.17
2023-01-10T21:03:24.771Z,1.83
2023-01-10T21:05:54.292Z,2.37
2023-01-10T21:08:23.562Z,1.40
2023-01-10T21:10:51.953Z,3.87
2023-01-10T21:13:19.971Z,1.00
2023-01-10T21:15:53.055Z,2.27
2023-01-10T21:18:24.152Z,2.73
2023-01-10T21:20:55.325Z,1.60
2023-01-10T21:23:25.123Z,2.67
2023-01-10T21:25:54.117Z,2.07
2023-01-10T21:28:22.038Z,2.13
2023-01-10T21:30:53.607Z,1.50
2023-01-10T21:33:21.351Z,1.40
2023-01-10T21:35:52.900Z,1.30
2023-01-10T21:38:20.720Z,1.30
2023-01-10T21:40:48.562Z,1.60
2023-01-10T21:43:16.446Z,1.70
2023-01-10T21:45:44.175Z,2.10
2023-01-10T21:48:13.537Z,1.37
2023-01-10T21:50:42.885Z,0.93
2023-01-10T21:53:10.677Z,1.30
2023-01-10T21:55:38.429Z,1.33
2023-01-10T21:58:06.157Z,1.30
2023-01-10T22:00:33.899Z,1.97
2023-01-10T22:03:01.623Z,1.20
2023-01-10T22:05:30.714Z,1.40
2023-01-10T22:07:58.416Z,1.60
2023-01-10T22:10:26.181Z,1.33
2023-01-10T22:12:53.896Z,1.70
2023-01-10T22:15:21.719Z,1.60
2023-01-10T22:17:49.494Z,2.17
2023-01-10T22:20:17.720Z,1.73
2023-01-10T22:22:46.770Z,1.43
2023-01-10T22:25:14.569Z,2.13
2023-01-10T22:27:44.865Z,1.03
2023-01-10T22:30:13.479Z,0.90
2023-01-10T22:32:41.164Z,1.63
2023-01-10T22:35:13.529Z,1.03
2023-01-10T22:37:41.563Z,1.57
2023-01-10T22:40:12.415Z,1.83
2023-01-10T22:42:40.191Z,1.97
2023-01-10T22:45:08.781Z,0.80
2023-01-10T22:47:36.503Z,2.23
2023-01-10T22:50:04.452Z,3.67
2023-01-10T22:52:32.570Z,2.10
2023-01-10T22:55:00.279Z,2.93
2023-01-10T22:57:32.977Z,1.20
2023-01-10T23:00:00.962Z,1.50
2023-01-10T23:02:29.251Z,1.03
2023-01-10T23:04:57.108Z,1.13
2023-01-10T23:07:24.953Z,1.60
2023-01-10T23:09:52.698Z,2.40
2023-01-10T23:12:20.494Z,1.03
2023-01-10T23:14:49.576Z,0.83
2023-01-10T23:17:17.256Z,1.80
2023-01-10T23:19:44.965Z,2.83
2023-01-10T23:22:12.688Z,1.70
2023-01-10T23:24:40.369Z,1.20
2023-01-10T23:27:08.171Z,1.50
2023-01-10T23:29:35.890Z,1.90
2023-01-10T23:32:05.286Z,2.93
2023-01-10T23:34:32.985Z,1.80
2023-01-10T23:37:00.756Z,1.87
2023-01-10T23:39:28.572Z,2.50
2023-01-10T23:41:56.318Z,2.33
2023-01-10T23:44:24.776Z,2.67
2023-01-10T23:46:52.556Z,1.70
2023-01-10T23:49:21.708Z,2.57
2023-01-10T23:51:49.705Z,1.90
2023-01-10T23:54:17.941Z,2.00
2023-01-10T23:56:45.697Z,2.13
2023-01-10T23:59:13.507Z,1.40
